createdAt,value
2018-12-30T00:00:39.653Z,101161.58
2018-12-30T00:03:10.440Z,101171.19
2018-12-30T00:05:40.932Z,101169.09
2018-12-30T00:08:14.425Z,101182.58
2018-12-30T00:10:45.059Z,101191.45
2018-12-30T00:13:15.283Z,101197.74
2018-12-30T00:15:45.700Z,101215.53
2018-12-30T00:18:16.395Z,101219.31
2018-12-30T00:20:48.758Z,101226.45
2018-12-30T00:23:19.699Z,101227.11
2018-12-30T00:25:50.012Z,101238.30
2018-12-30T00:28:21.496Z,101239.03
2018-12-30T00:30:51.717Z,101242.30
2018-12-30T00:33:22.017Z,101248.56
2018-12-30T00:35:52.541Z,101253.27
2018-12-30T00:38:22.951Z,101252.49
2018-12-30T00:40:53.278Z,101263.73
2018-12-30T00:43:24.614Z,101259.36
2018-12-30T00:45:54.887Z,101274.54
2018-12-30T00:48:25.358Z,101290.95
2018-12-30T00:50:55.621Z,101295.11
2018-12-30T00:53:26.031Z,101316.92
2018-12-30T00:55:56.356Z,101317.29
2018-12-30T00:58:28.999Z,101322.69
2018-12-30T01:00:59.242Z,101324.09
2018-12-30T01:03:29.623Z,101338.37
2018-12-30T01:06:00.279Z,101337.98
2018-12-30T01:08:30.588Z,101344.89
2018-12-30T01:11:01.118Z,101348.41
2018-12-30T01:13:35.892Z,101366.42
2018-12-30T01:16:06.556Z,101372.09
2018-12-30T01:18:36.882Z,101379.73
2018-12-30T01:21:07.503Z,101389.58
2018-12-30T01:23:38.142Z,101399.55
2018-12-30T01:26:08.469Z,101401.22
2018-12-30T01:28:39.065Z,101413.30
2018-12-30T01:31:09.286Z,101416.42
2018-12-30T01:33:39.998Z,101426.00
2018-12-30T01:36:10.713Z,101440.42
2018-12-30T01:38:41.761Z,101443.50
2018-12-30T01:41:12.428Z,101445.98
2018-12-30T01:43:43.177Z,101459.80
2018-12-30T01:46:13.848Z,101473.08
2018-12-30T01:48:44.211Z,101475.71
2018-12-30T01:51:15.704Z,101477.77
2018-12-30T01:53:46.100Z,101481.67
2018-12-30T01:56:16.487Z,101490.42
2018-12-30T01:58:47.541Z,101508.30
2018-12-30T02:01:17.974Z,101506.11
2018-12-30T02:03:48.280Z,101523.10
2018-12-30T02:06:20.760Z,101539.19
2018-12-30T02:08:52.091Z,101556.64
2018-12-30T02:11:22.502Z,101568.45
2018-12-30T02:13:52.822Z,101578.34
2018-12-30T02:16:23.269Z,101582.69
2018-12-30T02:18:53.541Z,101590.64
2018-12-30T02:21:24.583Z,101599.16
2018-12-30T02:23:55.009Z,101596.94
2018-12-30T02:26:26.544Z,101606.61
2018-12-30T02:28:56.893Z,101603.60
2018-12-30T02:31:28.752Z,101609.25
2018-12-30T02:33:58.977Z,101619.58
2018-12-30T02:36:29.635Z,101628.80
2018-12-30T02:39:00.241Z,101634.50
2018-12-30T02:41:31.388Z,101642.05
2018-12-30T02:44:02.175Z,101647.53
2018-12-30T02:46:32.369Z,101651.94
2018-12-30T02:49:05.500Z,101657.76
2018-12-30T02:51:35.948Z,101658.09
2018-12-30T02:54:06.669Z,101660.87
2018-12-30T02:56:36.934Z,101663.47
2018-12-30T02:59:07.275Z,101670.56
2018-12-30T03:01:37.841Z,101672.98
2018-12-30T03:04:08.076Z,101669.09
2018-12-30T03:06:38.411Z,101669.09
2018-12-30T03:09:08.866Z,101667.59
2018-12-30T03:11:39.364Z,101677.05
2018-12-30T03:14:09.646Z,101685.31
2018-12-30T03:16:40.096Z,101672.80
2018-12-30T03:19:10.708Z,101680.94
2018-12-30T03:21:40.949Z,101691.88
2018-12-30T03:24:11.493Z,101691.02
2018-12-30T03:26:42.156Z,101694.61
2018-12-30T03:29:12.342Z,101705.59
2018-12-30T03:31:42.716Z,101699.97
2018-12-30T03:34:12.937Z,101705.88
2018-12-30T03:36:43.412Z,101712.33
2018-12-30T03:39:13.793Z,101713.34
2018-12-30T03:41:44.146Z,101721.95
2018-12-30T03:44:14.361Z,101722.62
2018-12-30T03:46:44.815Z,101729.99
2018-12-30T03:49:15.053Z,101727.92
2018-12-30T03:51:49.586Z,101742.27
2018-12-30T03:54:20.027Z,101736.96
2018-12-30T03:56:50.294Z,101751.22
2018-12-30T03:59:20.589Z,101755.20
2018-12-30T04:01:50.818Z,101762.11
2018-12-30T04:04:21.050Z,101772.26
2018-12-30T04:06:51.679Z,101778.63
2018-12-30T04:09:22.082Z,101782.66
2018-12-30T04:11:52.439Z,101782.14
2018-12-30T04:14:22.850Z,101778.42
2018-12-30T04:16:53.081Z,101778.70
2018-12-30T04:19:23.587Z,101773.75
2018-12-30T04:21:53.771Z,101779.11
2018-12-30T04:24:24.031Z,101785.34
2018-12-30T04:26:54.378Z,101793.17
2018-12-30T04:29:24.702Z,101790.96
2018-12-30T04:31:54.937Z,101800.81
2018-12-30T04:34:25.258Z,101796.34
2018-12-30T04:36:55.552Z,101805.91
2018-12-30T04:39:25.843Z,101807.75
2018-12-30T04:41:56.242Z,101812.08
2018-12-30T04:44:26.487Z,101816.00
2018-12-30T04:46:57.184Z,101822.95
2018-12-30T04:49:27.601Z,101822.52
2018-12-30T04:51:57.823Z,101831.34
2018-12-30T04:54:29.273Z,101832.11
2018-12-30T04:56:59.648Z,101832.17
2018-12-30T04:59:30.057Z,101831.19
2018-12-30T05:02:00.655Z,101843.53
2018-12-30T05:04:31.050Z,101838.89
2018-12-30T05:07:01.486Z,101848.64
2018-12-30T05:09:31.955Z,101853.41
2018-12-30T05:12:02.361Z,101857.84
2018-12-30T05:14:33.037Z,101862.97
2018-12-30T05:17:03.333Z,101865.05
2018-12-30T05:19:33.818Z,101862.30
2018-12-30T05:22:05.109Z,101869.75
2018-12-30T05:24:35.509Z,101874.94
2018-12-30T05:27:07.367Z,101874.53
2018-12-30T05:29:37.665Z,101882.69
2018-12-30T05:32:08.144Z,101876.05
2018-12-30T05:34:41.226Z,101881.06
2018-12-30T05:37:11.459Z,101880.17
2018-12-30T05:39:41.778Z,101884.55
2018-12-30T05:42:12.053Z,101876.22
2018-12-30T05:44:42.397Z,101885.02
2018-12-30T05:47:15.099Z,101888.02
2018-12-30T05:49:45.746Z,101896.32
2018-12-30T05:52:16.553Z,101897.52
2018-12-30T05:54:47.005Z,101903.09
2018-12-30T05:57:17.220Z,101902.91
2018-12-30T05:59:47.677Z,101910.47
2018-12-30T06:02:18.387Z,101915.78
2018-12-30T06:04:48.594Z,101922.36
2018-12-30T06:07:18.804Z,101924.13
2018-12-30T06:09:49.056Z,101926.31
2018-12-30T06:12:19.270Z,101927.20
2018-12-30T06:14:49.471Z,101921.34
2018-12-30T06:17:20.849Z,101935.89
2018-12-30T06:19:51.102Z,101930.17
2018-12-30T06:22:21.656Z,101940.86
2018-12-30T06:24:52.666Z,101938.95
2018-12-30T06:27:22.892Z,101947.84
2018-12-30T06:29:53.142Z,101956.93
2018-12-30T06:32:23.637Z,101950.56
2018-12-30T06:34:53.921Z,101956.93
2018-12-30T06:37:24.402Z,101963.51
2018-12-30T06:39:56.138Z,101975.80
2018-12-30T06:42:26.584Z,101979.39
2018-12-30T06:44:57.237Z,101981.52
2018-12-30T06:47:27.991Z,101981.00
2018-12-30T06:49:58.283Z,101988.04
2018-12-30T06:52:28.827Z,101986.43
2018-12-30T06:54:59.030Z,101990.14
2018-12-30T06:57:29.298Z,101985.11
2018-12-30T06:59:59.523Z,101985.98
2018-12-30T07:02:29.861Z,101996.20
2018-12-30T07:05:00.239Z,101990.28
2018-12-30T07:07:30.595Z,101996.33
2018-12-30T07:10:01.072Z,102004.70
2018-12-30T07:12:31.769Z,101996.15
2018-12-30T07:15:01.980Z,102005.85
2018-12-30T07:17:32.543Z,102003.59
2018-12-30T07:20:02.929Z,101997.88
2018-12-30T07:22:33.179Z,101999.20
2018-12-30T07:25:03.867Z,101998.72
2018-12-30T07:27:34.134Z,102002.17
2018-12-30T07:30:04.618Z,102012.16
2018-12-30T07:32:35.048Z,102006.31
2018-12-30T07:35:07.843Z,102009.91
2018-12-30T07:37:37.244Z,102017.47
2018-12-30T07:40:07.571Z,102016.52
2018-12-30T07:42:38.204Z,102020.78
2018-12-30T07:45:08.565Z,102011.82
2018-12-30T07:47:38.822Z,102032.69
2018-12-30T07:50:09.268Z,102031.14
2018-12-30T07:52:39.496Z,102033.15
2018-12-30T07:55:09.867Z,102027.70
2018-12-30T07:57:40.188Z,102030.48
2018-12-30T08:00:10.842Z,102024.64
2018-12-30T08:02:41.064Z,102028.17
2018-12-30T08:05:11.390Z,102036.20
2018-12-30T08:07:41.594Z,102034.35
2018-12-30T08:10:12.079Z,102039.45
2018-12-30T08:12:42.356Z,102037.19
2018-12-30T08:15:12.597Z,102036.17
2018-12-30T08:17:42.978Z,102033.94
2018-12-30T08:20:20.771Z,102038.12
2018-12-30T08:22:51.336Z,102032.00
2018-12-30T08:25:21.723Z,102043.56
2018-12-30T08:27:51.986Z,102041.13
2018-12-30T08:30:22.876Z,102043.10
2018-12-30T08:32:53.476Z,102045.45
2018-12-30T08:35:24.089Z,102049.44
2018-12-30T08:37:54.465Z,102035.47
2018-12-30T08:40:24.690Z,102040.53
2018-12-30T08:42:55.114Z,102042.17
2018-12-30T08:45:25.687Z,102037.84
2018-12-30T08:47:57.243Z,102043.20
2018-12-30T08:50:27.767Z,102049.28
2018-12-30T08:52:58.435Z,102058.59
2018-12-30T08:55:28.988Z,102052.89
2018-12-30T08:58:03.814Z,102057.60
2018-12-30T09:00:34.451Z,102055.50
2018-12-30T09:03:04.830Z,102065.80
2018-12-30T09:05:35.032Z,102068.69
2018-12-30T09:08:05.582Z,102074.75
2018-12-30T09:10:36.114Z,102068.59
2018-12-30T09:13:08.067Z,102078.26
2018-12-30T09:15:38.487Z,102083.30
2018-12-30T09:18:09.102Z,102089.11
2018-12-30T09:20:39.349Z,102084.50
2018-12-30T09:23:10.215Z,102086.75
2018-12-30T09:25:40.511Z,102090.42
2018-12-30T09:28:10.837Z,102098.09
2018-12-30T09:30:41.448Z,102088.06
2018-12-30T09:33:11.692Z,102096.41
2018-12-30T09:35:42.039Z,102096.28
2018-12-30T09:38:12.712Z,102098.04
2018-12-30T09:40:44.081Z,102101.23
2018-12-30T09:43:14.330Z,102096.97
2018-12-30T09:45:45.659Z,102104.83
2018-12-30T09:48:16.039Z,102105.16
2018-12-30T09:50:46.385Z,102097.77
2018-12-30T09:53:16.829Z,102102.45
2018-12-30T09:55:50.272Z,102091.08
2018-12-30T09:58:20.597Z,102080.44
2018-12-30T10:00:51.003Z,102092.54
2018-12-30T10:03:21.429Z,102088.70
2018-12-30T10:05:51.680Z,102101.00
2018-12-30T10:08:22.050Z,102108.12
2018-12-30T10:10:53.898Z,102111.37
2018-12-30T10:13:24.271Z,102125.79
2018-12-30T10:15:54.539Z,102125.82
2018-12-30T10:18:25.135Z,102118.61
2018-12-30T10:20:55.603Z,102120.88
2018-12-30T10:23:26.296Z,102132.59
2018-12-30T10:25:56.722Z,102133.39
2018-12-30T10:28:27.202Z,102128.23
2018-12-30T10:30:57.737Z,102126.73
2018-12-30T10:33:28.276Z,102134.19
2018-12-30T10:35:58.578Z,102140.16
2018-12-30T10:38:28.997Z,102136.50
2018-12-30T10:40:59.375Z,102144.09
2018-12-30T10:43:31.987Z,102143.50
2018-12-30T10:46:03.661Z,102143.78
2018-12-30T10:48:34.245Z,102144.64
2018-12-30T10:51:04.750Z,102148.64
2018-12-30T10:53:35.125Z,102149.41
2018-12-30T10:56:05.475Z,102148.87
2018-12-30T10:58:35.798Z,102151.87
2018-12-30T11:01:06.502Z,102149.16
2018-12-30T11:03:37.219Z,102165.13
2018-12-30T11:06:11.022Z,102155.53
2018-12-30T11:08:41.319Z,102147.55
2018-12-30T11:11:12.235Z,102155.87
2018-12-30T11:13:43.041Z,102159.06
2018-12-30T11:16:14.390Z,102151.67
2018-12-30T11:18:44.769Z,102157.33
2018-12-30T11:21:15.123Z,102156.46
2018-12-30T11:23:45.442Z,102157.54
2018-12-30T11:26:15.830Z,102148.66
2018-12-30T11:28:46.053Z,102143.91
2018-12-30T11:31:16.640Z,102158.39
2018-12-30T11:33:46.930Z,102158.86
2018-12-30T11:36:17.704Z,102163.21
2018-12-30T11:38:49.317Z,102162.91
2018-12-30T11:41:19.582Z,102169.30
2018-12-30T11:43:50.233Z,102163.04
2018-12-30T11:46:22.576Z,102164.30
2018-12-30T11:48:52.906Z,102168.36
2018-12-30T11:51:23.224Z,102170.09
2018-12-30T11:53:53.760Z,102166.91
2018-12-30T11:56:25.136Z,102172.63
2018-12-30T11:58:55.747Z,102185.45
2018-12-30T12:01:26.577Z,102178.42
2018-12-30T12:03:57.053Z,102166.41
2018-12-30T12:06:27.452Z,102180.22
2018-12-30T12:08:57.913Z,102182.08
2018-12-30T12:11:29.776Z,102183.00
2018-12-30T12:14:00.126Z,102179.14
2018-12-30T12:16:30.876Z,102188.55
2018-12-30T12:19:01.224Z,102181.09
2018-12-30T12:21:33.600Z,102177.17
2018-12-30T12:24:04.096Z,102177.23
2018-12-30T12:26:34.489Z,102166.98
2018-12-30T12:29:11.737Z,102174.17
2018-12-30T12:31:42.012Z,102171.63
2018-12-30T12:34:12.355Z,102172.13
2018-12-30T12:36:42.884Z,102164.55
2018-12-30T12:39:13.374Z,102166.25
2018-12-30T12:41:43.662Z,102169.84
2018-12-30T12:44:14.214Z,102160.09
2018-12-30T12:46:44.727Z,102157.03
2018-12-30T12:49:14.994Z,102170.00
2018-12-30T12:51:45.549Z,102158.09
2018-12-30T12:54:15.861Z,102160.44
2018-12-30T12:56:46.248Z,102156.08
2018-12-30T12:59:16.924Z,102166.91
2018-12-30T13:01:47.763Z,102164.12
2018-12-30T13:04:18.066Z,102161.80
2018-12-30T13:06:49.527Z,102155.27
2018-12-30T13:09:19.848Z,102153.08
2018-12-30T13:11:50.161Z,102156.27
2018-12-30T13:14:20.816Z,102156.66
2018-12-30T13:16:51.783Z,102152.21
2018-12-30T13:19:22.121Z,102163.25
2018-12-30T13:21:52.687Z,102170.37
2018-12-30T13:24:24.203Z,102177.08
2018-12-30T13:26:54.916Z,102175.29
2018-12-30T13:29:25.322Z,102195.52
2018-12-30T13:31:55.999Z,102200.35
2018-12-30T13:34:26.615Z,102200.04
2018-12-30T13:36:57.479Z,102170.37
2018-12-30T13:39:27.952Z,102152.27
2018-12-30T13:41:58.319Z,102163.44
2018-12-30T13:44:28.687Z,102164.70
2018-12-30T13:46:59.173Z,102157.80
2018-12-30T13:49:29.918Z,102155.39
2018-12-30T13:52:00.342Z,102163.25
2018-12-30T13:54:32.406Z,102172.56
2018-12-30T13:57:02.814Z,102172.77
2018-12-30T13:59:37.320Z,102167.98
2018-12-30T14:02:07.930Z,102177.61
2018-12-30T14:04:38.228Z,102183.58
2018-12-30T14:07:08.703Z,102183.38
2018-12-30T14:09:39.206Z,102180.31
2018-12-30T14:12:09.711Z,102175.11
2018-12-30T14:14:40.391Z,102180.42
2018-12-30T14:17:11.657Z,102187.08
2018-12-30T14:19:41.962Z,102189.13
2018-12-30T14:22:12.683Z,102201.95
2018-12-30T14:24:43.185Z,102206.00
2018-12-30T14:27:13.686Z,102218.10
2018-12-30T14:29:44.195Z,102232.89
2018-12-30T14:32:14.487Z,102244.96
2018-12-30T14:34:50.813Z,102226.44
2018-12-30T14:37:21.383Z,102224.81
2018-12-30T14:39:51.866Z,102230.19
2018-12-30T14:42:24.338Z,102229.43
2018-12-30T14:44:54.727Z,102249.95
2018-12-30T14:47:25.015Z,102245.27
2018-12-30T14:49:55.632Z,102254.63
2018-12-30T14:52:26.094Z,102259.03
2018-12-30T14:55:03.518Z,102260.05
2018-12-30T14:57:29.265Z,102260.05
2018-12-30T15:00:00.832Z,102264.96
2018-12-30T15:02:31.555Z,102269.46
2018-12-30T15:05:02.024Z,102264.63
2018-12-30T15:07:32.392Z,102267.44
2018-12-30T15:10:02.961Z,102273.78
2018-12-30T15:12:34.796Z,102261.84
2018-12-30T15:15:05.513Z,102267.62
2018-12-30T15:17:36.313Z,102263.33
2018-12-30T15:20:07.046Z,102268.29
2018-12-30T15:22:37.422Z,102281.52
2018-12-30T15:25:12.025Z,102272.78
2018-12-30T15:27:40.469Z,102269.72
2018-12-30T15:30:11.010Z,102267.48
2018-12-30T15:32:41.699Z,102264.07
2018-12-30T15:35:12.329Z,102280.92
2018-12-30T15:37:43.066Z,102270.47
2018-12-30T15:40:13.662Z,102271.33
2018-12-30T15:42:44.105Z,102288.58
2018-12-30T15:45:14.548Z,102280.69
2018-12-30T15:47:45.168Z,102287.11
2018-12-30T15:50:16.529Z,102298.96
2018-12-30T15:52:50.201Z,102300.45
2018-12-30T15:55:20.444Z,102307.95
2018-12-30T15:57:51.074Z,102322.56
2018-12-30T16:00:21.458Z,102331.54
2018-12-30T16:02:52.067Z,102338.22
2018-12-30T16:05:22.449Z,102334.24
2018-12-30T16:07:52.747Z,102342.16
2018-12-30T16:10:22.974Z,102346.19
2018-12-30T16:12:53.362Z,102345.52
2018-12-30T16:15:23.661Z,102364.70
2018-12-30T16:17:53.946Z,102363.44
2018-12-30T16:20:24.370Z,102358.52
2018-12-30T16:22:54.631Z,102359.39
2018-12-30T16:25:27.406Z,102356.64
2018-12-30T16:27:57.608Z,102364.61
2018-12-30T16:30:27.942Z,102372.11
2018-12-30T16:32:58.271Z,102365.11
2018-12-30T16:35:28.718Z,102369.16
2018-12-30T16:38:00.567Z,102372.31
2018-12-30T16:40:33.589Z,102372.97
2018-12-30T16:43:04.562Z,102376.06
2018-12-30T16:45:35.427Z,102377.30
2018-12-30T16:48:06.036Z,102362.30
2018-12-30T16:50:36.375Z,102372.50
2018-12-30T16:53:07.082Z,102370.31
2018-12-30T16:55:38.855Z,102372.55
2018-12-30T16:58:10.291Z,102382.25
2018-12-30T17:00:41.371Z,102382.25
2018-12-30T17:03:13.745Z,102379.60
2018-12-30T17:05:44.315Z,102389.80
2018-12-30T17:08:15.189Z,102390.34
2018-12-30T17:10:46.489Z,102392.63
2018-12-30T17:13:22.551Z,102393.55
2018-12-30T17:15:53.267Z,102387.39
2018-12-30T17:18:23.565Z,102392.28
2018-12-30T17:20:54.404Z,102400.33
2018-12-30T17:23:25.074Z,102397.77
2018-12-30T17:25:55.352Z,102392.09
2018-12-30T17:28:25.881Z,102403.58
2018-12-30T17:30:56.116Z,102403.30
2018-12-30T17:33:26.354Z,102395.84
2018-12-30T17:35:56.753Z,102392.36
2018-12-30T17:38:27.496Z,102388.02
2018-12-30T17:41:01.605Z,102389.84
2018-12-30T17:43:30.420Z,102392.50
2018-12-30T17:46:01.854Z,102396.52
2018-12-30T17:48:32.793Z,102406.72
2018-12-30T17:51:03.376Z,102401.87
2018-12-30T17:53:34.335Z,102402.69
2018-12-30T17:56:04.934Z,102400.45
2018-12-30T17:58:35.446Z,102414.50
2018-12-30T18:01:06.027Z,102408.28
2018-12-30T18:03:36.240Z,102407.41
2018-12-30T18:06:08.234Z,102414.09
2018-12-30T18:08:39.063Z,102407.91
2018-12-30T18:11:09.385Z,102407.88
2018-12-30T18:13:40.222Z,102414.13
2018-12-30T18:16:10.572Z,102417.15
2018-12-30T18:18:40.902Z,102418.84
2018-12-30T18:21:11.756Z,102415.19
2018-12-30T18:23:42.265Z,102429.23
2018-12-30T18:26:12.815Z,102427.91
2018-12-30T18:28:44.377Z,102438.52
2018-12-30T18:31:16.956Z,102435.41
2018-12-30T18:33:47.460Z,102437.19
2018-12-30T18:36:17.699Z,102446.01
2018-12-30T18:38:47.961Z,102441.17
2018-12-30T18:41:18.227Z,102435.91
2018-12-30T18:43:49.335Z,102435.12
2018-12-30T18:46:19.684Z,102436.13
2018-12-30T18:48:49.987Z,102438.00
2018-12-30T18:51:20.296Z,102441.19
2018-12-30T18:53:50.642Z,102439.91
2018-12-30T18:56:21.281Z,102430.17
2018-12-30T18:58:51.956Z,102432.83
2018-12-30T19:01:22.419Z,102429.77
2018-12-30T19:03:52.989Z,102440.37
2018-12-30T19:06:23.713Z,102455.36
2018-12-30T19:08:54.575Z,102450.47
2018-12-30T19:11:25.040Z,102454.32
2018-12-30T19:13:55.545Z,102458.66
2018-12-30T19:16:25.825Z,102461.73
2018-12-30T19:18:56.277Z,102459.03
2018-12-30T19:21:26.622Z,102456.80
2018-12-30T19:23:56.897Z,102461.31
2018-12-30T19:26:27.528Z,102455.16
2018-12-30T19:28:57.882Z,102453.45
2018-12-30T19:31:28.151Z,102448.69
2018-12-30T19:33:58.649Z,102451.30
2018-12-30T19:36:29.134Z,102456.14
2018-12-30T19:38:59.447Z,102451.30
2018-12-30T19:41:30.223Z,102455.23
2018-12-30T19:44:00.795Z,102459.12
2018-12-30T19:46:31.194Z,102461.31
2018-12-30T19:49:01.580Z,102465.25
2018-12-30T19:51:32.117Z,102458.13
2018-12-30T19:54:02.558Z,102455.88
2018-12-30T19:56:33.208Z,102454.14
2018-12-30T19:59:03.967Z,102447.97
2018-12-30T20:01:35.754Z,102460.13
2018-12-30T20:04:06.107Z,102460.21
2018-12-30T20:06:36.705Z,102461.74
2018-12-30T20:09:08.964Z,102472.14
2018-12-30T20:11:40.284Z,102470.94
2018-12-30T20:14:10.613Z,102472.84
2018-12-30T20:16:41.241Z,102477.81
2018-12-30T20:19:11.925Z,102474.33
2018-12-30T20:21:42.212Z,102478.30
2018-12-30T20:24:12.624Z,102480.95
2018-12-30T20:26:43.383Z,102477.81
2018-12-30T20:29:13.817Z,102479.47
2018-12-30T20:31:44.620Z,102478.59
2018-12-30T20:34:15.785Z,102474.63
2018-12-30T20:36:46.287Z,102477.28
2018-12-30T20:39:16.788Z,102482.58
2018-12-30T20:41:47.350Z,102480.91
2018-12-30T20:44:17.664Z,102473.00
2018-12-30T20:46:47.915Z,102477.47
2018-12-30T20:49:18.338Z,102470.51
2018-12-30T20:51:48.771Z,102464.34
2018-12-30T20:54:19.502Z,102455.56
2018-12-30T20:56:51.434Z,102461.69
2018-12-30T20:59:21.869Z,102466.98
2018-12-30T21:01:52.104Z,102469.30
2018-12-30T21:04:22.846Z,102471.91
2018-12-30T21:06:53.232Z,102463.92
2018-12-30T21:09:23.606Z,102466.50
2018-12-30T21:11:54.035Z,102474.81
2018-12-30T21:14:24.304Z,102475.23
2018-12-30T21:16:55.264Z,102476.45
2018-12-30T21:19:25.796Z,102476.33
2018-12-30T21:21:56.377Z,102468.70
2018-12-30T21:24:27.125Z,102465.43
2018-12-30T21:26:58.742Z,102459.18
2018-12-30T21:29:29.320Z,102460.92
2018-12-30T21:31:59.533Z,102456.06
2018-12-30T21:34:30.208Z,102453.84
2018-12-30T21:37:00.833Z,102457.40
2018-12-30T21:39:31.388Z,102463.61
2018-12-30T21:42:01.730Z,102458.34
2018-12-30T21:44:33.513Z,102445.97
2018-12-30T21:47:03.851Z,102445.97
2018-12-30T21:49:36.061Z,102441.16
2018-12-30T21:52:07.307Z,102446.91
2018-12-30T21:54:37.630Z,102447.70
2018-12-30T21:57:08.207Z,102449.86
2018-12-30T21:59:39.000Z,102452.09
2018-12-30T22:02:09.631Z,102452.46
2018-12-30T22:04:40.476Z,102457.27
2018-12-30T22:07:11.418Z,102462.53
2018-12-30T22:09:42.035Z,102464.73
2018-12-30T22:12:12.363Z,102458.18
2018-12-30T22:14:42.984Z,102456.36
2018-12-30T22:17:16.895Z,102465.52
2018-12-30T22:19:46.422Z,102460.62
2018-12-30T22:22:16.867Z,102458.93
2018-12-30T22:24:47.092Z,102449.59
2018-12-30T22:27:17.525Z,102453.49
2018-12-30T22:29:47.797Z,102440.23
2018-12-30T22:32:19.446Z,102456.14
2018-12-30T22:34:49.919Z,102453.49
2018-12-30T22:37:20.266Z,102452.99
2018-12-30T22:39:51.390Z,102459.53
2018-12-30T22:42:22.853Z,102459.41
2018-12-30T22:44:53.668Z,102457.17
2018-12-30T22:47:24.716Z,102450.95
2018-12-30T22:49:55.350Z,102458.45
2018-12-30T22:52:25.992Z,102460.65
2018-12-30T22:54:56.421Z,102450.95
2018-12-30T22:57:26.993Z,102455.76
2018-12-30T22:59:57.569Z,102456.63
2018-12-30T23:02:27.947Z,102443.41
2018-12-30T23:04:59.020Z,102431.10
2018-12-30T23:07:29.439Z,102433.02
2018-12-30T23:09:59.718Z,102427.80
2018-12-30T23:12:31.188Z,102432.32
2018-12-30T23:15:02.279Z,102438.08
2018-12-30T23:17:32.499Z,102439.45
2018-12-30T23:20:03.023Z,102443.93
2018-12-30T23:22:34.040Z,102443.10
2018-12-30T23:25:04.495Z,102444.42
2018-12-30T23:27:35.094Z,102457.27
2018-12-30T23:30:05.993Z,102458.52
2018-12-30T23:32:36.327Z,102461.58
2018-12-30T23:35:06.770Z,102469.45
2018-12-30T23:37:37.471Z,102472.55
2018-12-30T23:40:08.349Z,102482.20
2018-12-30T23:42:39.068Z,102482.86
2018-12-30T23:45:09.789Z,102481.63
2018-12-30T23:47:41.334Z,102495.96
2018-12-30T23:50:11.841Z,102502.59
2018-12-30T23:52:42.755Z,102498.52
2018-12-30T23:55:13.824Z,102486.45
2018-12-30T23:57:47.213Z,102482.80
